Terminal Aerodrome Forecast
Issued by NWS Cleveland, OH

Home | Current Version | Previous Version | Graphics & Text | Print | Product List | Glossary On
Versions: 1 2 3 4 5 6 7 8 9 10 11 12 13 14 15 16 17 18
409
FTUS41 KCLE 290713 AAA
TAFCAK
TAF AMD
KCAK 290713Z 2907/3006 VRB03KT P6SM OVC007
      TEMPO 2907/2909 5SM BR BKN005
     FM290900 VRB02KT 4SM BR BKN002
      TEMPO 2910/2913 1SM BR OVC001
     FM291300 30004KT P6SM SCT005 BKN150
     FM291900 33008KT P6SM VCTS BKN040CB
     FM300000 VRB03KT P6SM SCT060 OVC100=

USA.gov is the U.S. government's official web portal to all federal, state and local government web resources and services.